TRA51K EHAM-LGSK
Flight info
| Callsign | TRA51K |
|---|---|
| Flight time | 2h 43m |
| Altitude | 35000 |
| Route | EDUPO Z739 MISGO DCT DOJOH DCT DODEN DCT NEGIX DCT DINKU DCT BESNI DCT LATLO DCT OBEDI DCT BERTA DCT TEBLI DCT TIVNU DCT MEDUX UM867 KOGAT DCT ERANA UL737 TSL UL617 IBIDI |
| Aircraft | B738/M-SDE2E3FGHIJ1RWXYZ/LB1 |
Departure
| Time | 2026-05-05 09:35 |
|---|---|
| Airport | Amsterdam Airport Schiphol (EHAM) |
Arrival
| Time | 2026-05-05 12:18 |
|---|---|
| Airport | Skiathos Island National Airport (LGSK) |
| Time | Latitude | Longitude | Altitude | Speed | Heading |
|---|---|---|---|---|---|
| 2026-05-05 09:14 | 52.30808 | 4.76708 | -2 ft | 0 kts | 340° |
| 2026-05-05 09:24 | 52.30808 | 4.76709 | -2 ft | 0 kts | 340° |
| 2026-05-05 09:24 | 52.30797 | 4.76715 | -2 ft | 3 kts | 340° |
| 2026-05-05 09:24 | 52.30778 | 4.76726 | -2 ft | 3 kts | 340° |
| 2026-05-05 09:25 | 52.30759 | 4.76737 | -2 ft | 3 kts | 340° |
| 2026-05-05 09:25 | 52.30741 | 4.76747 | -2 ft | 3 kts | 341° |
| 2026-05-05 09:25 | 52.30723 | 4.76754 | -2 ft | 3 kts | 13° |
| 2026-05-05 09:25 | 52.30705 | 4.76742 | -2 ft | 3 kts | 30° |
| 2026-05-05 09:26 | 52.30690 | 4.76727 | -2 ft | 3 kts | 4° |
| 2026-05-05 09:26 | 52.30676 | 4.76730 | -2 ft | 3 kts | 330° |
| 2026-05-05 09:26 | 52.30666 | 4.76741 | -2 ft | 1 kts | 327° |
| 2026-05-05 09:28 | 52.30667 | 4.76739 | -2 ft | 1 kts | 328° |
| 2026-05-05 09:28 | 52.30696 | 4.76736 | -2 ft | 7 kts | 19° |
| 2026-05-05 09:28 | 52.30709 | 4.76807 | -2 ft | 7 kts | 119° |
| 2026-05-05 09:29 | 52.30671 | 4.76860 | -2 ft | 7 kts | 134° |
| 2026-05-05 09:29 | 52.30655 | 4.76943 | -2 ft | 9 kts | 98° |
| 2026-05-05 09:29 | 52.30609 | 4.77026 | -2 ft | 12 kts | 147° |
| 2026-05-05 09:29 | 52.30535 | 4.77088 | -2 ft | 12 kts | 178° |
| 2026-05-05 09:30 | 52.30476 | 4.76995 | -2 ft | 13 kts | 237° |
| 2026-05-05 09:30 | 52.30421 | 4.76851 | -2 ft | 17 kts | 238° |
| 2026-05-05 09:30 | 52.30349 | 4.76664 | -2 ft | 22 kts | 238° |
| 2026-05-05 09:30 | 52.30263 | 4.76438 | -2 ft | 25 kts | 238° |
| 2026-05-05 09:31 | 52.30168 | 4.76190 | -2 ft | 25 kts | 238° |
| 2026-05-05 09:31 | 52.30078 | 4.75955 | -2 ft | 23 kts | 237° |
| 2026-05-05 09:31 | 52.29993 | 4.75735 | -29 ft | 23 kts | 238° |
| 2026-05-05 09:31 | 52.29911 | 4.75521 | -2 ft | 22 kts | 238° |
| 2026-05-05 09:32 | 52.29838 | 4.75319 | -2 ft | 18 kts | 251° |
| 2026-05-05 09:32 | 52.29875 | 4.75134 | -2 ft | 18 kts | 311° |
| 2026-05-05 09:32 | 52.29963 | 4.74969 | -2 ft | 22 kts | 311° |
| 2026-05-05 09:32 | 52.30073 | 4.74767 | 0 ft | 26 kts | 311° |
| 2026-05-05 09:33 | 52.30189 | 4.74552 | 9 ft | 24 kts | 311° |
| 2026-05-05 09:33 | 52.30295 | 4.74354 | 6 ft | 24 kts | 311° |
| 2026-05-05 09:33 | 52.30393 | 4.74168 | -2 ft | 16 kts | 311° |
| 2026-05-05 09:33 | 52.30417 | 4.74021 | -2 ft | 14 kts | 248° |
| 2026-05-05 09:34 | 52.30409 | 4.73865 | -3 ft | 14 kts | 274° |
| 2026-05-05 09:34 | 52.30420 | 4.73772 | -4 ft | 5 kts | 314° |
| 2026-05-05 09:34 | 52.30475 | 4.73763 | -4 ft | 20 kts | 3° |
| 2026-05-05 09:34 | 52.30868 | 4.73800 | -2 ft | 91 kts | 3° |
| 2026-05-05 09:35 | 52.31713 | 4.73879 | -2 ft | 150 kts | 5° |
| 2026-05-05 09:35 | 52.33932 | 4.74170 | 1495 ft | 155 kts | 19° |
| 2026-05-05 09:35 | 52.34946 | 4.74879 | 2190 ft | 168 kts | 25° |
| 2026-05-05 09:36 | 52.36126 | 4.75722 | 2492 ft | 200 kts | 25° |
| 2026-05-05 09:36 | 52.37467 | 4.76683 | 2775 ft | 222 kts | 27° |
| 2026-05-05 09:36 | 52.38740 | 4.78338 | 3082 ft | 244 kts | 47° |
| 2026-05-05 09:36 | 52.39917 | 4.80404 | 3893 ft | 251 kts | 45° |
| 2026-05-05 09:37 | 52.41136 | 4.82479 | 4764 ft | 255 kts | 44° |
| 2026-05-05 09:37 | 52.42162 | 4.84903 | 5429 ft | 270 kts | 70° |
| 2026-05-05 09:37 | 52.42431 | 4.87969 | 6296 ft | 273 kts | 89° |
| 2026-05-05 09:37 | 52.42434 | 4.91095 | 7137 ft | 277 kts | 90° |
| 2026-05-05 09:38 | 52.42428 | 4.94282 | 7879 ft | 283 kts | 90° |
| 2026-05-05 09:38 | 52.42232 | 4.97504 | 8616 ft | 289 kts | 109° |
| 2026-05-05 09:38 | 52.41177 | 5.00278 | 9452 ft | 290 kts | 135° |
| 2026-05-05 09:38 | 52.39577 | 5.02342 | 10163 ft | 296 kts | 146° |
| 2026-05-05 09:39 | 52.37812 | 5.04308 | 10471 ft | 318 kts | 146° |
| 2026-05-05 09:39 | 52.35922 | 5.06430 | 10687 ft | 341 kts | 146° |
| 2026-05-05 09:39 | 52.33955 | 5.08677 | 11334 ft | 347 kts | 144° |
| 2026-05-05 09:39 | 52.32123 | 5.11295 | 12028 ft | 352 kts | 133° |
| 2026-05-05 09:40 | 52.30491 | 5.14333 | 12701 ft | 359 kts | 131° |
| 2026-05-05 09:40 | 52.28870 | 5.17473 | 13471 ft | 362 kts | 131° |
| 2026-05-05 09:40 | 52.27215 | 5.20589 | 14254 ft | 363 kts | 132° |
| 2026-05-05 09:40 | 52.25532 | 5.23677 | 14913 ft | 367 kts | 133° |
| 2026-05-05 09:41 | 52.23854 | 5.26797 | 15703 ft | 367 kts | 130° |
| 2026-05-05 09:41 | 52.22330 | 5.30111 | 16313 ft | 372 kts | 126° |
| 2026-05-05 09:41 | 52.20843 | 5.33608 | 16954 ft | 377 kts | 125° |
| 2026-05-05 09:41 | 52.19361 | 5.37143 | 17646 ft | 379 kts | 126° |
| 2026-05-05 09:42 | 52.17850 | 5.40716 | 18180 ft | 386 kts | 126° |
| 2026-05-05 09:42 | 52.16313 | 5.44302 | 18827 ft | 387 kts | 127° |
| 2026-05-05 09:42 | 52.14758 | 5.47897 | 19435 ft | 387 kts | 126° |
| 2026-05-05 09:42 | 52.13200 | 5.51474 | 20096 ft | 388 kts | 127° |
| 2026-05-05 09:43 | 52.11622 | 5.55083 | 20520 ft | 395 kts | 127° |
| 2026-05-05 09:43 | 52.10018 | 5.58744 | 21003 ft | 400 kts | 127° |
| 2026-05-05 09:43 | 52.08395 | 5.62444 | 21542 ft | 403 kts | 127° |
| 2026-05-05 09:43 | 52.06761 | 5.66166 | 22081 ft | 406 kts | 127° |
| 2026-05-05 09:44 | 52.05052 | 5.69829 | 22589 ft | 408 kts | 131° |
| 2026-05-05 09:44 | 52.03185 | 5.73328 | 23095 ft | 411 kts | 134° |
| 2026-05-05 09:44 | 52.01267 | 5.76805 | 23572 ft | 415 kts | 134° |
| 2026-05-05 09:44 | 51.99346 | 5.80332 | 23985 ft | 418 kts | 133° |
| 2026-05-05 09:45 | 51.97430 | 5.83901 | 24419 ft | 421 kts | 133° |
| 2026-05-05 09:45 | 51.95508 | 5.87493 | 24830 ft | 423 kts | 133° |
| 2026-05-05 09:45 | 51.93565 | 5.91113 | 25190 ft | 427 kts | 134° |
| 2026-05-05 09:45 | 51.91618 | 5.94735 | 25583 ft | 430 kts | 134° |
| 2026-05-05 09:46 | 51.89648 | 5.98397 | 26003 ft | 432 kts | 134° |
| 2026-05-05 09:46 | 51.87677 | 6.02056 | 26510 ft | 431 kts | 134° |
| 2026-05-05 09:46 | 51.85706 | 6.05705 | 26960 ft | 432 kts | 134° |
| 2026-05-05 09:46 | 51.83717 | 6.09365 | 27278 ft | 435 kts | 135° |
| 2026-05-05 09:47 | 51.81701 | 6.13050 | 27610 ft | 439 kts | 135° |
| 2026-05-05 09:47 | 51.79675 | 6.16752 | 27986 ft | 441 kts | 135° |
| 2026-05-05 09:47 | 51.77638 | 6.20469 | 28361 ft | 443 kts | 135° |
| 2026-05-05 09:47 | 51.75593 | 6.24199 | 28710 ft | 445 kts | 135° |
| 2026-05-05 09:48 | 51.73541 | 6.27947 | 29045 ft | 447 kts | 135° |
| 2026-05-05 09:48 | 51.71477 | 6.31713 | 29356 ft | 450 kts | 135° |
| 2026-05-05 09:48 | 51.69397 | 6.35502 | 29648 ft | 453 kts | 135° |
| 2026-05-05 09:48 | 51.67304 | 6.39316 | 29958 ft | 455 kts | 136° |
| 2026-05-05 09:49 | 51.65207 | 6.43130 | 30309 ft | 454 kts | 136° |
| 2026-05-05 09:49 | 51.63120 | 6.46918 | 30774 ft | 451 kts | 136° |
| 2026-05-05 09:49 | 51.61054 | 6.50663 | 31353 ft | 444 kts | 137° |
| 2026-05-05 09:49 | 51.59018 | 6.54350 | 31894 ft | 439 kts | 137° |
| 2026-05-05 09:50 | 51.56990 | 6.58010 | 32217 ft | 439 kts | 137° |
| 2026-05-05 09:50 | 51.54955 | 6.61676 | 32488 ft | 440 kts | 138° |
| 2026-05-05 09:50 | 51.52943 | 6.65298 | 32827 ft | 439 kts | 138° |
| 2026-05-05 09:50 | 51.50916 | 6.68945 | 33239 ft | 437 kts | 138° |
| 2026-05-05 09:51 | 51.48901 | 6.72566 | 33646 ft | 434 kts | 139° |
| 2026-05-05 09:51 | 51.46885 | 6.76181 | 33882 ft | 436 kts | 139° |
| 2026-05-05 09:51 | 51.44908 | 6.79720 | 34002 ft | 439 kts | 139° |
| 2026-05-05 09:51 | 51.42864 | 6.83375 | 34210 ft | 440 kts | 138° |
| 2026-05-05 09:52 | 51.40820 | 6.87027 | 34490 ft | 439 kts | 139° |
| 2026-05-05 09:52 | 51.38725 | 6.90553 | 34745 ft | 436 kts | 141° |
| 2026-05-05 09:52 | 51.36556 | 6.93965 | 34873 ft | 438 kts | 142° |
| 2026-05-05 09:52 | 51.34346 | 6.97343 | 34870 ft | 441 kts | 142° |
| 2026-05-05 09:53 | 51.29911 | 7.04090 | 34876 ft | 437 kts | 142° |
| 2026-05-05 09:53 | 51.25553 | 7.10777 | 34885 ft | 433 kts | 142° |
| 2026-05-05 09:54 | 51.21203 | 7.17464 | 34863 ft | 435 kts | 141° |
| 2026-05-05 09:54 | 51.16852 | 7.24152 | 34885 ft | 434 kts | 141° |
| 2026-05-05 09:55 | 51.12497 | 7.30827 | 34887 ft | 435 kts | 141° |
| 2026-05-05 09:55 | 51.08129 | 7.37501 | 34888 ft | 436 kts | 142° |
| 2026-05-05 09:56 | 51.03743 | 7.44185 | 34885 ft | 437 kts | 142° |
| 2026-05-05 09:56 | 51.00089 | 7.49739 | 34880 ft | 438 kts | 142° |
| 2026-05-05 09:57 | 50.95681 | 7.56424 | 34858 ft | 439 kts | 142° |
| 2026-05-05 09:57 | 50.91268 | 7.63097 | 34868 ft | 439 kts | 142° |
| 2026-05-05 09:58 | 50.86851 | 7.69760 | 34871 ft | 438 kts | 142° |
| 2026-05-05 09:58 | 50.82430 | 7.76403 | 34876 ft | 438 kts | 142° |
| 2026-05-05 09:59 | 50.77987 | 7.83013 | 34881 ft | 438 kts | 143° |
| 2026-05-05 09:59 | 50.73549 | 7.89593 | 34886 ft | 438 kts | 142° |
| 2026-05-05 10:00 | 50.69106 | 7.96168 | 34862 ft | 438 kts | 143° |
| 2026-05-05 10:00 | 50.64671 | 8.02718 | 34877 ft | 437 kts | 143° |
| 2026-05-05 10:01 | 50.60271 | 8.09230 | 34866 ft | 437 kts | 141° |
| 2026-05-05 10:01 | 50.56306 | 8.16665 | 34861 ft | 442 kts | 134° |
| 2026-05-05 10:02 | 50.52569 | 8.24240 | 34859 ft | 440 kts | 134° |
| 2026-05-05 10:02 | 50.48781 | 8.31771 | 34864 ft | 438 kts | 134° |
| 2026-05-05 10:03 | 50.44974 | 8.39226 | 34857 ft | 438 kts | 135° |
| 2026-05-05 10:03 | 50.41156 | 8.46670 | 34860 ft | 437 kts | 135° |
| 2026-05-05 10:04 | 50.37328 | 8.54065 | 34862 ft | 436 kts | 136° |
| 2026-05-05 10:04 | 50.33247 | 8.61065 | 34861 ft | 435 kts | 139° |
| 2026-05-05 10:05 | 50.29079 | 8.67919 | 34855 ft | 435 kts | 139° |
| 2026-05-05 10:05 | 50.24918 | 8.74782 | 34861 ft | 435 kts | 139° |
| 2026-05-05 10:06 | 50.20765 | 8.81672 | 34864 ft | 436 kts | 139° |
| 2026-05-05 10:06 | 50.16564 | 8.88639 | 34872 ft | 446 kts | 139° |
| 2026-05-05 10:07 | 50.12267 | 8.95750 | 34871 ft | 455 kts | 139° |
| 2026-05-05 10:07 | 50.07931 | 9.02913 | 34858 ft | 458 kts | 139° |
| 2026-05-05 10:08 | 50.03557 | 9.10123 | 34861 ft | 458 kts | 139° |
| 2026-05-05 10:08 | 49.99183 | 9.17310 | 34854 ft | 457 kts | 139° |
| 2026-05-05 10:09 | 49.94810 | 9.24470 | 34859 ft | 456 kts | 139° |
| 2026-05-05 10:09 | 49.90439 | 9.31607 | 34871 ft | 456 kts | 139° |
| 2026-05-05 10:10 | 49.86071 | 9.38717 | 34867 ft | 455 kts | 139° |
| 2026-05-05 10:10 | 49.81701 | 9.45813 | 34864 ft | 455 kts | 139° |
| 2026-05-05 10:11 | 49.77333 | 9.52883 | 34855 ft | 454 kts | 139° |
| 2026-05-05 10:11 | 49.72973 | 9.59922 | 34854 ft | 453 kts | 139° |
| 2026-05-05 10:12 | 49.68617 | 9.66937 | 34866 ft | 452 kts | 139° |
| 2026-05-05 10:12 | 49.64262 | 9.73927 | 34859 ft | 452 kts | 139° |
| 2026-05-05 10:13 | 49.59902 | 9.80906 | 34862 ft | 451 kts | 139° |
| 2026-05-05 10:13 | 49.55541 | 9.87869 | 34855 ft | 452 kts | 139° |
| 2026-05-05 10:14 | 49.51178 | 9.94818 | 34858 ft | 451 kts | 139° |
| 2026-05-05 10:14 | 49.46814 | 10.01748 | 34860 ft | 452 kts | 139° |
| 2026-05-05 10:15 | 49.42437 | 10.08681 | 34859 ft | 452 kts | 139° |
| 2026-05-05 10:15 | 49.38087 | 10.15550 | 34860 ft | 451 kts | 139° |
| 2026-05-05 10:16 | 49.33707 | 10.22448 | 34861 ft | 451 kts | 139° |
| 2026-05-05 10:16 | 49.29324 | 10.29335 | 34852 ft | 451 kts | 139° |
| 2026-05-05 10:17 | 49.24931 | 10.36219 | 34853 ft | 452 kts | 139° |
| 2026-05-05 10:17 | 49.20511 | 10.43005 | 34867 ft | 449 kts | 141° |
| 2026-05-05 10:18 | 49.16032 | 10.49635 | 34869 ft | 448 kts | 141° |
| 2026-05-05 10:18 | 49.11552 | 10.56242 | 34866 ft | 447 kts | 141° |
| 2026-05-05 10:19 | 49.07090 | 10.62836 | 34869 ft | 446 kts | 141° |
| 2026-05-05 10:19 | 49.02631 | 10.69421 | 34855 ft | 446 kts | 141° |
| 2026-05-05 10:20 | 48.98165 | 10.76001 | 34861 ft | 447 kts | 141° |
| 2026-05-05 10:20 | 48.93679 | 10.82591 | 34853 ft | 449 kts | 141° |
| 2026-05-05 10:21 | 48.89182 | 10.89184 | 34853 ft | 450 kts | 141° |
| 2026-05-05 10:21 | 48.84672 | 10.95776 | 34856 ft | 450 kts | 141° |
| 2026-05-05 10:22 | 48.80179 | 11.02326 | 34843 ft | 452 kts | 141° |
| 2026-05-05 10:22 | 48.75638 | 11.08929 | 34862 ft | 453 kts | 141° |
| 2026-05-05 10:23 | 48.71086 | 11.15532 | 34854 ft | 453 kts | 141° |
| 2026-05-05 10:23 | 48.66534 | 11.22121 | 34857 ft | 453 kts | 141° |
| 2026-05-05 10:24 | 48.62074 | 11.28869 | 34850 ft | 455 kts | 137° |
| 2026-05-05 10:24 | 48.57827 | 11.35969 | 34827 ft | 456 kts | 136° |
| 2026-05-05 10:25 | 48.53594 | 11.43109 | 34849 ft | 457 kts | 136° |
| 2026-05-05 10:25 | 48.49323 | 11.50231 | 34849 ft | 458 kts | 136° |
| 2026-05-05 10:26 | 48.45022 | 11.57341 | 34855 ft | 460 kts | 136° |
| 2026-05-05 10:26 | 48.40699 | 11.64453 | 34830 ft | 461 kts | 136° |
| 2026-05-05 10:27 | 48.36365 | 11.71565 | 34816 ft | 461 kts | 136° |
| 2026-05-05 10:27 | 48.32025 | 11.78670 | 34831 ft | 462 kts | 136° |
| 2026-05-05 10:28 | 48.27680 | 11.85766 | 34829 ft | 462 kts | 136° |
| 2026-05-05 10:28 | 48.23325 | 11.92859 | 34837 ft | 462 kts | 136° |
| 2026-05-05 10:29 | 48.18964 | 11.99940 | 34839 ft | 462 kts | 136° |
| 2026-05-05 10:29 | 48.14602 | 12.07006 | 34817 ft | 462 kts | 136° |
| 2026-05-05 10:30 | 48.10234 | 12.14062 | 34838 ft | 462 kts | 136° |
| 2026-05-05 10:30 | 48.05861 | 12.21108 | 34826 ft | 462 kts | 136° |
| 2026-05-05 10:31 | 48.01480 | 12.28145 | 34828 ft | 462 kts | 136° |
| 2026-05-05 10:31 | 47.97100 | 12.35165 | 34825 ft | 462 kts | 136° |
| 2026-05-05 10:32 | 47.92722 | 12.42161 | 34822 ft | 461 kts | 136° |
| 2026-05-05 10:32 | 47.88350 | 12.49129 | 34830 ft | 460 kts | 136° |
| 2026-05-05 10:33 | 47.83979 | 12.56079 | 34830 ft | 459 kts | 136° |
| 2026-05-05 10:33 | 47.79639 | 12.62959 | 34828 ft | 459 kts | 136° |
| 2026-05-05 10:34 | 47.75263 | 12.69880 | 34826 ft | 459 kts | 136° |
| 2026-05-05 10:34 | 47.70900 | 12.76767 | 34829 ft | 457 kts | 136° |
| 2026-05-05 10:35 | 47.66521 | 12.83586 | 34823 ft | 456 kts | 137° |
| 2026-05-05 10:35 | 47.62029 | 12.90218 | 34826 ft | 456 kts | 138° |
| 2026-05-05 10:36 | 47.57519 | 12.96811 | 34834 ft | 456 kts | 138° |
| 2026-05-05 10:36 | 47.53021 | 13.03415 | 34825 ft | 455 kts | 138° |
| 2026-05-05 10:37 | 47.48529 | 13.10017 | 34832 ft | 456 kts | 138° |
| 2026-05-05 10:37 | 47.44024 | 13.16621 | 34834 ft | 456 kts | 138° |
| 2026-05-05 10:38 | 47.39522 | 13.23202 | 34852 ft | 456 kts | 138° |
| 2026-05-05 10:38 | 47.35000 | 13.29797 | 34873 ft | 457 kts | 138° |
| 2026-05-05 10:39 | 47.30486 | 13.36420 | 34873 ft | 458 kts | 137° |
| 2026-05-05 10:39 | 47.26029 | 13.43150 | 34896 ft | 459 kts | 137° |
| 2026-05-05 10:40 | 47.21597 | 13.49859 | 34896 ft | 461 kts | 137° |
| 2026-05-05 10:40 | 47.17121 | 13.56593 | 34899 ft | 460 kts | 138° |
| 2026-05-05 10:41 | 47.12645 | 13.63294 | 34915 ft | 459 kts | 137° |
| 2026-05-05 10:41 | 47.08176 | 13.69966 | 34904 ft | 458 kts | 138° |
| 2026-05-05 10:42 | 47.01478 | 13.79932 | 34923 ft | 457 kts | 137° |
| 2026-05-05 10:43 | 46.97015 | 13.86550 | 34930 ft | 457 kts | 138° |
| 2026-05-05 10:43 | 46.92549 | 13.93157 | 34945 ft | 456 kts | 139° |
| 2026-05-05 10:44 | 46.88091 | 13.99737 | 34937 ft | 455 kts | 138° |
| 2026-05-05 10:44 | 46.83641 | 14.06290 | 34947 ft | 454 kts | 138° |
| 2026-05-05 10:45 | 46.79186 | 14.12832 | 34957 ft | 454 kts | 138° |
| 2026-05-05 10:45 | 46.74730 | 14.19358 | 34972 ft | 454 kts | 138° |
| 2026-05-05 10:46 | 46.70262 | 14.25886 | 34972 ft | 455 kts | 138° |
| 2026-05-05 10:46 | 46.65790 | 14.32404 | 34950 ft | 455 kts | 138° |
| 2026-05-05 10:47 | 46.62058 | 14.37828 | 34965 ft | 457 kts | 138° |
| 2026-05-05 10:47 | 46.57554 | 14.44366 | 34968 ft | 458 kts | 138° |
| 2026-05-05 10:48 | 46.52290 | 14.51985 | 34977 ft | 460 kts | 138° |
| 2026-05-05 10:48 | 46.48482 | 14.57481 | 34981 ft | 462 kts | 138° |
| 2026-05-05 10:48 | 46.46198 | 14.60771 | 35111 ft | 463 kts | 139° |
| 2026-05-05 10:49 | 46.43958 | 14.64141 | 35337 ft | 465 kts | 135° |
| 2026-05-05 10:49 | 46.41837 | 14.67678 | 35654 ft | 463 kts | 133° |
| 2026-05-05 10:49 | 46.39765 | 14.71232 | 35963 ft | 462 kts | 133° |
| 2026-05-05 10:49 | 46.37694 | 14.74808 | 36150 ft | 463 kts | 133° |
| 2026-05-05 10:50 | 46.35616 | 14.78389 | 36285 ft | 465 kts | 135° |
| 2026-05-05 10:50 | 46.33521 | 14.81977 | 36445 ft | 466 kts | 134° |
| 2026-05-05 10:50 | 46.31453 | 14.85500 | 36670 ft | 466 kts | 135° |
| 2026-05-05 10:51 | 46.27231 | 14.92647 | 37052 ft | 466 kts | 134° |
| 2026-05-05 10:51 | 46.23005 | 14.99767 | 37000 ft | 467 kts | 133° |
| 2026-05-05 10:52 | 46.18763 | 15.06896 | 37007 ft | 468 kts | 133° |
| 2026-05-05 10:52 | 46.14520 | 15.14011 | 37006 ft | 467 kts | 133° |
| 2026-05-05 10:53 | 46.10279 | 15.21103 | 37006 ft | 467 kts | 133° |
| 2026-05-05 10:53 | 46.06036 | 15.28179 | 37005 ft | 466 kts | 134° |
| 2026-05-05 10:54 | 46.01793 | 15.35238 | 37016 ft | 466 kts | 133° |
| 2026-05-05 10:54 | 45.97542 | 15.42293 | 37024 ft | 467 kts | 134° |
| 2026-05-05 10:55 | 45.93282 | 15.49345 | 37011 ft | 468 kts | 134° |
| 2026-05-05 10:55 | 45.89016 | 15.56388 | 37020 ft | 467 kts | 134° |
| 2026-05-05 10:56 | 45.84741 | 15.63427 | 37021 ft | 468 kts | 134° |
| 2026-05-05 10:56 | 45.80465 | 15.70452 | 37013 ft | 468 kts | 134° |
| 2026-05-05 10:57 | 45.76183 | 15.77470 | 37022 ft | 468 kts | 134° |
| 2026-05-05 10:57 | 45.71895 | 15.84476 | 37003 ft | 468 kts | 134° |
| 2026-05-05 10:58 | 45.67608 | 15.91465 | 37007 ft | 467 kts | 134° |
| 2026-05-05 10:58 | 45.63317 | 15.98443 | 36997 ft | 467 kts | 134° |
| 2026-05-05 10:59 | 45.59015 | 16.05421 | 37015 ft | 468 kts | 134° |
| 2026-05-05 10:59 | 45.54713 | 16.12382 | 37008 ft | 468 kts | 134° |
| 2026-05-05 11:00 | 45.50398 | 16.19345 | 36990 ft | 469 kts | 134° |
| 2026-05-05 11:00 | 45.46074 | 16.26306 | 37013 ft | 469 kts | 134° |
| 2026-05-05 11:01 | 45.41733 | 16.33275 | 37007 ft | 471 kts | 134° |
| 2026-05-05 11:01 | 45.37412 | 16.40197 | 36996 ft | 472 kts | 134° |
| 2026-05-05 11:02 | 45.33048 | 16.47169 | 36992 ft | 472 kts | 134° |
| 2026-05-05 11:02 | 45.28677 | 16.54137 | 36995 ft | 473 kts | 134° |
| 2026-05-05 11:03 | 45.24294 | 16.61107 | 37001 ft | 473 kts | 134° |
| 2026-05-05 11:03 | 45.19899 | 16.68079 | 37006 ft | 474 kts | 134° |
| 2026-05-05 11:04 | 45.15552 | 16.75104 | 37005 ft | 474 kts | 133° |
| 2026-05-05 11:04 | 45.11219 | 16.82159 | 36990 ft | 475 kts | 133° |
| 2026-05-05 11:05 | 45.06874 | 16.89199 | 37000 ft | 475 kts | 133° |
| 2026-05-05 11:05 | 45.02521 | 16.96218 | 37004 ft | 475 kts | 134° |
| 2026-05-05 11:06 | 44.98165 | 17.03227 | 36995 ft | 475 kts | 134° |
| 2026-05-05 11:06 | 44.93688 | 17.10082 | 37000 ft | 474 kts | 137° |
| 2026-05-05 11:07 | 44.89010 | 17.16619 | 36999 ft | 474 kts | 138° |
| 2026-05-05 11:07 | 44.84295 | 17.23126 | 36983 ft | 474 kts | 138° |
| 2026-05-05 11:08 | 44.79602 | 17.29653 | 36993 ft | 474 kts | 138° |
| 2026-05-05 11:08 | 44.74917 | 17.36195 | 36998 ft | 475 kts | 137° |
| 2026-05-05 11:09 | 44.70226 | 17.42741 | 37001 ft | 475 kts | 137° |
| 2026-05-05 11:09 | 44.65562 | 17.49235 | 37012 ft | 475 kts | 137° |
| 2026-05-05 11:10 | 44.60829 | 17.55806 | 37019 ft | 476 kts | 137° |
| 2026-05-05 11:10 | 44.56151 | 17.62284 | 37006 ft | 476 kts | 138° |
| 2026-05-05 11:11 | 44.51434 | 17.68799 | 37020 ft | 476 kts | 138° |
| 2026-05-05 11:11 | 44.46709 | 17.75310 | 37027 ft | 477 kts | 138° |
| 2026-05-05 11:12 | 44.41978 | 17.81814 | 37026 ft | 477 kts | 138° |
| 2026-05-05 11:12 | 44.37242 | 17.88309 | 37032 ft | 477 kts | 138° |
| 2026-05-05 11:13 | 44.32493 | 17.94806 | 37033 ft | 478 kts | 138° |
| 2026-05-05 11:13 | 44.27730 | 18.01308 | 37037 ft | 479 kts | 138° |
| 2026-05-05 11:14 | 44.22956 | 18.07809 | 37040 ft | 480 kts | 138° |
| 2026-05-05 11:14 | 44.18172 | 18.14307 | 37038 ft | 481 kts | 138° |
| 2026-05-05 11:15 | 44.13376 | 18.20805 | 37040 ft | 481 kts | 138° |
| 2026-05-05 11:15 | 44.08576 | 18.27296 | 37032 ft | 482 kts | 138° |
| 2026-05-05 11:16 | 44.03798 | 18.33740 | 37053 ft | 482 kts | 138° |
| 2026-05-05 11:16 | 43.98973 | 18.40232 | 37053 ft | 483 kts | 138° |
| 2026-05-05 11:17 | 43.94136 | 18.46724 | 37050 ft | 484 kts | 138° |
| 2026-05-05 11:17 | 43.89298 | 18.53202 | 37051 ft | 483 kts | 139° |
| 2026-05-05 11:18 | 43.84460 | 18.59667 | 37046 ft | 483 kts | 139° |
| 2026-05-05 11:18 | 43.79615 | 18.66124 | 36782 ft | 481 kts | 136° |
| 2026-05-05 11:18 | 43.77222 | 18.69306 | 36893 ft | 474 kts | 136° |
| 2026-05-05 11:19 | 43.74861 | 18.72443 | 36928 ft | 468 kts | 136° |
| 2026-05-05 11:19 | 43.70205 | 18.78621 | 36994 ft | 459 kts | 136° |
| 2026-05-05 11:20 | 43.65629 | 18.84679 | 36991 ft | 452 kts | 136° |
| 2026-05-05 11:20 | 43.61112 | 18.90644 | 36991 ft | 446 kts | 136° |
| 2026-05-05 11:21 | 43.56649 | 18.96525 | 36991 ft | 441 kts | 136° |
| 2026-05-05 11:21 | 43.52233 | 19.02331 | 36995 ft | 436 kts | 136° |
| 2026-05-05 11:22 | 43.47860 | 19.08069 | 36996 ft | 432 kts | 136° |
| 2026-05-05 11:22 | 43.43523 | 19.13748 | 36995 ft | 429 kts | 136° |
| 2026-05-05 11:23 | 43.39219 | 19.19372 | 36993 ft | 425 kts | 137° |
| 2026-05-05 11:23 | 43.34945 | 19.24947 | 36994 ft | 422 kts | 137° |
| 2026-05-05 11:24 | 43.30700 | 19.30470 | 36999 ft | 419 kts | 137° |
| 2026-05-05 11:24 | 43.26507 | 19.35915 | 36999 ft | 416 kts | 137° |
| 2026-05-05 11:25 | 43.22308 | 19.41358 | 37001 ft | 414 kts | 137° |
| 2026-05-05 11:25 | 43.18128 | 19.46766 | 36998 ft | 412 kts | 137° |
| 2026-05-05 11:26 | 43.13967 | 19.52138 | 36996 ft | 410 kts | 137° |
| 2026-05-05 11:26 | 43.09824 | 19.57476 | 36998 ft | 408 kts | 137° |
| 2026-05-05 11:27 | 43.05703 | 19.62776 | 36999 ft | 406 kts | 137° |
| 2026-05-05 11:27 | 43.01597 | 19.68048 | 36998 ft | 404 kts | 137° |
| 2026-05-05 11:28 | 42.97509 | 19.73285 | 36998 ft | 402 kts | 137° |
| 2026-05-05 11:28 | 42.93408 | 19.78530 | 37009 ft | 407 kts | 137° |
| 2026-05-05 11:29 | 42.89242 | 19.83846 | 37012 ft | 413 kts | 137° |
| 2026-05-05 11:29 | 42.85006 | 19.89240 | 37014 ft | 420 kts | 137° |
| 2026-05-05 11:30 | 42.80709 | 19.94704 | 37012 ft | 426 kts | 137° |
| 2026-05-05 11:30 | 42.76345 | 20.00242 | 37012 ft | 432 kts | 137° |
| 2026-05-05 11:31 | 42.72192 | 20.06206 | 37011 ft | 437 kts | 130° |
| 2026-05-05 11:31 | 42.68349 | 20.12666 | 37006 ft | 442 kts | 129° |
| 2026-05-05 11:32 | 42.64500 | 20.19162 | 37009 ft | 446 kts | 129° |
| 2026-05-05 11:32 | 42.60547 | 20.25722 | 37005 ft | 451 kts | 130° |
| 2026-05-05 11:33 | 42.56541 | 20.32305 | 37006 ft | 454 kts | 130° |
| 2026-05-05 11:33 | 42.52496 | 20.38929 | 37006 ft | 458 kts | 130° |
| 2026-05-05 11:34 | 42.48417 | 20.45595 | 37004 ft | 461 kts | 130° |
| 2026-05-05 11:34 | 42.44308 | 20.52299 | 37003 ft | 464 kts | 130° |
| 2026-05-05 11:35 | 42.40173 | 20.59026 | 37003 ft | 466 kts | 130° |
| 2026-05-05 11:35 | 42.36014 | 20.65780 | 37002 ft | 468 kts | 130° |
| 2026-05-05 11:36 | 42.31830 | 20.72559 | 37003 ft | 470 kts | 130° |
| 2026-05-05 11:36 | 42.27631 | 20.79347 | 37000 ft | 472 kts | 130° |
| 2026-05-05 11:37 | 42.23410 | 20.86154 | 37004 ft | 473 kts | 130° |
| 2026-05-05 11:37 | 42.19894 | 20.91813 | 36998 ft | 475 kts | 130° |
| 2026-05-05 11:38 | 42.15640 | 20.98647 | 37005 ft | 476 kts | 130° |
| 2026-05-05 11:38 | 42.10648 | 21.06548 | 36996 ft | 477 kts | 134° |
| 2026-05-05 11:39 | 42.05877 | 21.12758 | 36998 ft | 478 kts | 137° |
| 2026-05-05 11:39 | 42.01776 | 21.17818 | 37006 ft | 478 kts | 137° |
| 2026-05-05 11:40 | 41.96888 | 21.23887 | 36999 ft | 479 kts | 137° |
| 2026-05-05 11:40 | 41.92018 | 21.30004 | 37004 ft | 480 kts | 137° |
| 2026-05-05 11:41 | 41.87152 | 21.36136 | 37003 ft | 480 kts | 137° |
| 2026-05-05 11:41 | 41.82279 | 21.42266 | 37001 ft | 481 kts | 137° |
| 2026-05-05 11:42 | 41.77393 | 21.48395 | 36999 ft | 481 kts | 137° |
| 2026-05-05 11:42 | 41.72501 | 21.54517 | 37008 ft | 481 kts | 137° |
| 2026-05-05 11:43 | 41.67602 | 21.60634 | 37000 ft | 482 kts | 137° |
| 2026-05-05 11:43 | 41.62705 | 21.66734 | 37001 ft | 482 kts | 137° |
| 2026-05-05 11:44 | 41.57796 | 21.72837 | 37004 ft | 482 kts | 137° |
| 2026-05-05 11:44 | 41.52883 | 21.78931 | 37000 ft | 482 kts | 137° |
| 2026-05-05 11:45 | 41.47997 | 21.84979 | 37004 ft | 482 kts | 137° |
| 2026-05-05 11:45 | 41.43076 | 21.91056 | 37000 ft | 482 kts | 137° |
| 2026-05-05 11:46 | 41.38148 | 21.97126 | 37002 ft | 483 kts | 137° |
| 2026-05-05 11:46 | 41.33217 | 22.03191 | 37005 ft | 483 kts | 137° |
| 2026-05-05 11:47 | 41.28284 | 22.09248 | 36997 ft | 483 kts | 137° |
| 2026-05-05 11:47 | 41.23343 | 22.15298 | 37002 ft | 483 kts | 137° |
| 2026-05-05 11:48 | 41.15919 | 22.24346 | 37000 ft | 483 kts | 139° |
| 2026-05-05 11:48 | 41.13369 | 22.27239 | 36884 ft | 485 kts | 140° |
| 2026-05-05 11:48 | 41.10737 | 22.30085 | 36423 ft | 487 kts | 141° |
| 2026-05-05 11:49 | 41.08113 | 22.32862 | 35999 ft | 481 kts | 142° |
| 2026-05-05 11:49 | 41.05506 | 22.35611 | 35548 ft | 476 kts | 142° |
| 2026-05-05 11:49 | 41.02936 | 22.38331 | 35101 ft | 471 kts | 141° |
| 2026-05-05 11:49 | 41.00393 | 22.41036 | 34659 ft | 466 kts | 141° |
| 2026-05-05 11:50 | 40.97880 | 22.43720 | 34223 ft | 462 kts | 141° |
| 2026-05-05 11:50 | 40.95394 | 22.46382 | 33789 ft | 458 kts | 141° |
| 2026-05-05 11:50 | 40.92929 | 22.49022 | 33360 ft | 454 kts | 141° |
| 2026-05-05 11:50 | 40.90487 | 22.51636 | 32934 ft | 449 kts | 141° |
| 2026-05-05 11:51 | 40.88070 | 22.54221 | 32514 ft | 446 kts | 141° |
| 2026-05-05 11:51 | 40.85672 | 22.56782 | 32097 ft | 442 kts | 141° |
| 2026-05-05 11:51 | 40.83291 | 22.59321 | 31683 ft | 438 kts | 141° |
| 2026-05-05 11:51 | 40.80931 | 22.61836 | 31273 ft | 434 kts | 141° |
| 2026-05-05 11:52 | 40.78591 | 22.64328 | 30869 ft | 431 kts | 141° |
| 2026-05-05 11:52 | 40.76269 | 22.66797 | 30468 ft | 427 kts | 141° |
| 2026-05-05 11:52 | 40.73962 | 22.69249 | 30058 ft | 424 kts | 141° |
| 2026-05-05 11:52 | 40.71678 | 22.71673 | 29673 ft | 420 kts | 141° |
| 2026-05-05 11:53 | 40.69414 | 22.74074 | 29273 ft | 416 kts | 141° |
| 2026-05-05 11:53 | 40.67167 | 22.76455 | 28864 ft | 412 kts | 141° |
| 2026-05-05 11:53 | 40.64944 | 22.78809 | 28460 ft | 409 kts | 141° |
| 2026-05-05 11:53 | 40.62733 | 22.81148 | 28056 ft | 406 kts | 141° |
| 2026-05-05 11:54 | 40.60545 | 22.83461 | 27654 ft | 402 kts | 141° |
| 2026-05-05 11:54 | 40.58372 | 22.85757 | 27256 ft | 399 kts | 141° |
| 2026-05-05 11:54 | 40.56211 | 22.88037 | 26858 ft | 396 kts | 141° |
| 2026-05-05 11:54 | 40.54071 | 22.90293 | 26464 ft | 393 kts | 141° |
| 2026-05-05 11:55 | 40.51949 | 22.92528 | 26074 ft | 390 kts | 141° |
| 2026-05-05 11:55 | 40.49840 | 22.94749 | 25685 ft | 387 kts | 141° |
| 2026-05-05 11:55 | 40.47747 | 22.96949 | 25300 ft | 384 kts | 141° |
| 2026-05-05 11:55 | 40.45614 | 22.98958 | 24912 ft | 381 kts | 150° |
| 2026-05-05 11:56 | 40.43235 | 23.00460 | 24456 ft | 380 kts | 159° |
| 2026-05-05 11:56 | 40.40777 | 23.01683 | 24073 ft | 377 kts | 160° |
| 2026-05-05 11:56 | 40.38321 | 23.02869 | 23679 ft | 374 kts | 160° |
| 2026-05-05 11:56 | 40.35887 | 23.04045 | 23295 ft | 372 kts | 160° |
| 2026-05-05 11:57 | 40.33470 | 23.05223 | 22916 ft | 369 kts | 160° |
| 2026-05-05 11:57 | 40.31070 | 23.06404 | 22543 ft | 367 kts | 160° |
| 2026-05-05 11:57 | 40.28691 | 23.07580 | 22168 ft | 364 kts | 159° |
| 2026-05-05 11:57 | 40.26333 | 23.08750 | 21801 ft | 362 kts | 159° |
| 2026-05-05 11:58 | 40.23989 | 23.09913 | 21436 ft | 359 kts | 159° |
| 2026-05-05 11:58 | 40.21663 | 23.11068 | 21072 ft | 356 kts | 159° |
| 2026-05-05 11:58 | 40.19351 | 23.12215 | 20711 ft | 354 kts | 159° |
| 2026-05-05 11:58 | 40.17056 | 23.13352 | 20352 ft | 351 kts | 159° |
| 2026-05-05 11:59 | 40.14780 | 23.14479 | 19996 ft | 349 kts | 160° |
| 2026-05-05 11:59 | 40.12516 | 23.15599 | 19641 ft | 347 kts | 160° |
| 2026-05-05 11:59 | 40.10268 | 23.16711 | 19291 ft | 344 kts | 159° |
| 2026-05-05 11:59 | 40.08037 | 23.17812 | 18953 ft | 342 kts | 160° |
| 2026-05-05 12:00 | 40.05820 | 23.18906 | 18611 ft | 339 kts | 160° |
| 2026-05-05 12:00 | 40.03620 | 23.19991 | 18269 ft | 337 kts | 160° |
| 2026-05-05 12:00 | 40.01435 | 23.21068 | 17927 ft | 335 kts | 160° |
| 2026-05-05 12:00 | 39.99263 | 23.22138 | 17586 ft | 333 kts | 160° |
| 2026-05-05 12:01 | 39.97108 | 23.23198 | 17247 ft | 330 kts | 160° |
| 2026-05-05 12:01 | 39.94964 | 23.24253 | 16908 ft | 328 kts | 160° |
| 2026-05-05 12:01 | 39.92831 | 23.25301 | 16571 ft | 326 kts | 160° |
| 2026-05-05 12:01 | 39.90712 | 23.26342 | 16235 ft | 325 kts | 160° |
| 2026-05-05 12:02 | 39.88602 | 23.27372 | 15888 ft | 323 kts | 160° |
| 2026-05-05 12:02 | 39.86503 | 23.28392 | 15548 ft | 321 kts | 160° |
| 2026-05-05 12:02 | 39.84414 | 23.29406 | 15211 ft | 320 kts | 160° |
| 2026-05-05 12:02 | 39.82336 | 23.30414 | 14878 ft | 318 kts | 160° |
| 2026-05-05 12:03 | 39.80272 | 23.31416 | 14548 ft | 316 kts | 160° |
| 2026-05-05 12:03 | 39.78217 | 23.32414 | 14220 ft | 314 kts | 160° |
| 2026-05-05 12:03 | 39.76203 | 23.33391 | 13898 ft | 312 kts | 160° |
| 2026-05-05 12:03 | 39.74172 | 23.34376 | 13574 ft | 311 kts | 160° |
| 2026-05-05 12:04 | 39.72156 | 23.35355 | 13253 ft | 309 kts | 160° |
| 2026-05-05 12:04 | 39.70153 | 23.36334 | 12937 ft | 307 kts | 160° |
| 2026-05-05 12:04 | 39.68161 | 23.37309 | 12620 ft | 305 kts | 160° |
| 2026-05-05 12:04 | 39.66180 | 23.38278 | 12303 ft | 303 kts | 160° |
| 2026-05-05 12:05 | 39.64211 | 23.39241 | 11986 ft | 302 kts | 160° |
| 2026-05-05 12:05 | 39.62254 | 23.40196 | 11672 ft | 300 kts | 160° |
| 2026-05-05 12:05 | 39.60307 | 23.41146 | 11358 ft | 298 kts | 160° |
| 2026-05-05 12:05 | 39.58369 | 23.42092 | 11044 ft | 297 kts | 160° |
| 2026-05-05 12:06 | 39.56441 | 23.43031 | 10732 ft | 295 kts | 160° |
| 2026-05-05 12:06 | 39.54524 | 23.43965 | 10422 ft | 294 kts | 160° |
| 2026-05-05 12:06 | 39.52619 | 23.44893 | 10159 ft | 290 kts | 160° |
| 2026-05-05 12:06 | 39.50756 | 23.45800 | 10036 ft | 282 kts | 160° |
| 2026-05-05 12:07 | 39.48936 | 23.46685 | 9843 ft | 277 kts | 160° |
| 2026-05-05 12:07 | 39.47133 | 23.47561 | 9562 ft | 276 kts | 160° |
| 2026-05-05 12:07 | 39.45340 | 23.48432 | 9289 ft | 274 kts | 160° |
| 2026-05-05 12:07 | 39.43556 | 23.49298 | 9013 ft | 273 kts | 160° |
| 2026-05-05 12:08 | 39.41781 | 23.50159 | 8737 ft | 272 kts | 160° |
| 2026-05-05 12:08 | 39.40018 | 23.51012 | 8467 ft | 270 kts | 160° |
| 2026-05-05 12:08 | 39.38259 | 23.51862 | 8196 ft | 269 kts | 160° |
| 2026-05-05 12:08 | 39.36510 | 23.52707 | 7924 ft | 268 kts | 160° |
| 2026-05-05 12:09 | 39.34768 | 23.53547 | 7652 ft | 267 kts | 160° |
| 2026-05-05 12:09 | 39.33035 | 23.54383 | 7380 ft | 265 kts | 160° |
| 2026-05-05 12:09 | 39.31307 | 23.55217 | 7108 ft | 264 kts | 160° |
| 2026-05-05 12:09 | 39.29588 | 23.56046 | 6837 ft | 263 kts | 160° |
| 2026-05-05 12:10 | 39.27875 | 23.56872 | 6566 ft | 262 kts | 160° |
| 2026-05-05 12:10 | 39.26170 | 23.57693 | 6297 ft | 261 kts | 160° |
| 2026-05-05 12:10 | 39.24469 | 23.58512 | 6029 ft | 260 kts | 160° |
| 2026-05-05 12:10 | 39.22777 | 23.59326 | 5762 ft | 259 kts | 160° |
| 2026-05-05 12:11 | 39.21095 | 23.60135 | 5498 ft | 258 kts | 160° |
| 2026-05-05 12:11 | 39.19414 | 23.60934 | 5245 ft | 257 kts | 163° |
| 2026-05-05 12:11 | 39.17654 | 23.61104 | 4969 ft | 256 kts | 193° |
| 2026-05-05 12:11 | 39.15989 | 23.60332 | 4711 ft | 255 kts | 206° |
| 2026-05-05 12:12 | 39.14409 | 23.59309 | 4447 ft | 254 kts | 207° |
| 2026-05-05 12:12 | 39.12846 | 23.58250 | 4180 ft | 253 kts | 208° |
| 2026-05-05 12:12 | 39.11313 | 23.57217 | 3969 ft | 250 kts | 207° |
| 2026-05-05 12:12 | 39.09795 | 23.56206 | 3855 ft | 242 kts | 207° |
| 2026-05-05 12:13 | 39.08315 | 23.55230 | 3739 ft | 236 kts | 207° |
| 2026-05-05 12:13 | 39.06875 | 23.54287 | 3633 ft | 228 kts | 207° |
| 2026-05-05 12:13 | 39.05484 | 23.53378 | 3545 ft | 220 kts | 207° |
| 2026-05-05 12:13 | 39.04161 | 23.52516 | 3469 ft | 207 kts | 207° |
| 2026-05-05 12:14 | 39.02910 | 23.51670 | 3260 ft | 200 kts | 214° |
| 2026-05-05 12:14 | 39.02099 | 23.50304 | 3058 ft | 194 kts | 255° |
| 2026-05-05 12:14 | 39.02118 | 23.48585 | 2888 ft | 196 kts | 288° |
| 2026-05-05 12:14 | 39.02885 | 23.47165 | 2680 ft | 196 kts | 323° |
| 2026-05-05 12:15 | 39.04141 | 23.46568 | 2472 ft | 194 kts | 358° |
| 2026-05-05 12:15 | 39.05458 | 23.46821 | 2316 ft | 189 kts | 12° |
| 2026-05-05 12:15 | 39.06735 | 23.47158 | 2067 ft | 184 kts | 11° |
| 2026-05-05 12:15 | 39.07950 | 23.47499 | 1838 ft | 173 kts | 12° |
| 2026-05-05 12:16 | 39.09066 | 23.47819 | 1645 ft | 155 kts | 12° |
| 2026-05-05 12:16 | 39.10080 | 23.48083 | 1453 ft | 147 kts | 7° |
| 2026-05-05 12:16 | 39.11092 | 23.48189 | 1265 ft | 144 kts | 2° |
| 2026-05-05 12:16 | 39.12099 | 23.48251 | 1043 ft | 144 kts | 3° |
| 2026-05-05 12:17 | 39.13102 | 23.48380 | 829 ft | 144 kts | 8° |
| 2026-05-05 12:17 | 39.14064 | 23.48710 | 630 ft | 143 kts | 19° |
| 2026-05-05 12:17 | 39.14997 | 23.49142 | 451 ft | 141 kts | 19° |
| 2026-05-05 12:17 | 39.15917 | 23.49559 | 273 ft | 140 kts | 18° |
| 2026-05-05 12:18 | 39.16837 | 23.49967 | 87 ft | 140 kts | 18° |
| 2026-05-05 12:18 | 39.17686 | 23.50346 | 40 ft | 92 kts | 19° |
| 2026-05-05 12:18 | 39.18125 | 23.50541 | 47 ft | 39 kts | 19° |
| 2026-05-05 12:18 | 39.18323 | 23.50630 | 57 ft | 25 kts | 19° |
| 2026-05-05 12:19 | 39.18411 | 23.50650 | 60 ft | 9 kts | 35° |
| 2026-05-05 12:19 | 39.18396 | 23.50661 | 60 ft | 5 kts | 196° |
| 2026-05-05 12:19 | 39.18338 | 23.50637 | 58 ft | 13 kts | 199° |
| 2026-05-05 12:19 | 39.18224 | 23.50586 | 53 ft | 22 kts | 201° |
| 2026-05-05 12:20 | 39.18062 | 23.50513 | 45 ft | 26 kts | 199° |
| 2026-05-05 12:20 | 39.17935 | 23.50433 | 42 ft | 16 kts | 242° |
| 2026-05-05 12:20 | 39.17897 | 23.50323 | 42 ft | 11 kts | 219° |
| 2026-05-05 12:20 | 39.17864 | 23.50287 | 42 ft | 5 kts | 259° |
| 2026-05-05 12:21 | 39.17870 | 23.50248 | 46 ft | 3 kts | 288° |
| 2026-05-05 12:21 | 39.17874 | 23.50234 | 47 ft | 0 kts | 288° |
| 2026-05-05 12:22 | 39.17875 | 23.50228 | 48 ft | 2 kts | 288° |
| 2026-05-05 12:22 | 39.17880 | 23.50208 | 51 ft | 0 kts | 288° |